createdAt,value
2022-12-17T21:53:43.731Z,21.73
2022-12-17T21:56:30.076Z,20.15
2022-12-17T21:59:15.997Z,18.38
2022-12-17T22:02:01.699Z,17.00
2022-12-17T22:04:47.860Z,17.27
2022-12-17T22:07:41.716Z,17.67
2022-12-17T22:10:49.362Z,20.58
2022-12-17T22:14:07.397Z,19.10
2022-12-17T22:16:54.306Z,19.75
2022-12-17T22:19:39.860Z,23.60
2022-12-17T22:22:28.834Z,28.02
2022-12-17T22:25:16.802Z,26.85
2022-12-17T22:28:02.673Z,23.88
2022-12-17T22:31:07.409Z,25.73
2022-12-17T22:35:02.509Z,22.83
2022-12-17T22:39:51.946Z,25.08
2022-12-17T22:42:06.228Z,26.80
2022-12-17T22:44:42.958Z,26.88
2022-12-17T22:46:36.323Z,29.30
2022-12-17T22:49:23.357Z,27.27
2022-12-17T22:52:09.029Z,26.85
2022-12-17T22:54:54.846Z,28.52
2022-12-17T22:57:40.657Z,28.27
2022-12-17T23:00:36.010Z,25.23
2022-12-17T23:03:22.089Z,27.42
2022-12-17T23:06:15.390Z,26.48
2022-12-17T23:09:00.812Z,27.20
2022-12-17T23:11:48.128Z,25.58
2022-12-17T23:14:33.417Z,27.20
2022-12-17T23:17:18.678Z,33.97
2022-12-17T23:20:04.879Z,30.65
2022-12-17T23:22:50.356Z,29.45
2022-12-17T23:25:36.091Z,28.75
2022-12-17T23:28:21.785Z,28.48
2022-12-17T23:31:18.303Z,32.30
2022-12-17T23:34:04.916Z,30.30
2022-12-17T23:36:50.653Z,30.77
2022-12-17T23:39:35.917Z,28.95
2022-12-17T23:42:22.163Z,29.55
2022-12-17T23:45:11.071Z,27.08
2022-12-17T23:47:57.552Z,28.55
2022-12-17T23:50:43.112Z,29.88
2022-12-17T23:53:32.661Z,29.05
2022-12-17T23:56:27.275Z,31.60
2022-12-17T23:59:12.682Z,31.17
